VER weather

General Heriberto Jara International Airport
Veracruz, Veracruz, Mexico

Public forecast

Using degrees Celsius for public forecast. Weather courtesy of forecast.io.

METAR (pilot weather report)

Retrieved 2019/04/20 16:43 UTC (0 seconds ago):

MMVR 201643Z 14004KT 7SM SKC 30/10 A3012 RMK HZY

TAF (pilot weather forecast)

Forecast is more than 6 hours old.

Retrieved 2019/04/20 06:38 UTC (10 hours ago):

TAF MMVR 200431Z 2006/2106 00000KT 6SM HZ SCT030 TX30/2018Z TN26/2012Z FM201600 12010KT P6SM SCT020 FM210200 00000KT 6SM HZ SCT020